Time;durP1;ratioP1;P1;durP2;ratioP2;P2;SDS_P1;SDS_P2;PMS_P1;PMS_P2;Temp;Humidity;BMP_temperature;BMP_pressure;BME280_temperature;BME280_humidity;BME280_pressure;Samples;Min_cycle;Max_cycle;Signal;HPM_P1;HPM_P2
2021/08/11 00:01:45;;;;;;;20.55;14.57;;;;;;;;;;143733;746;46022;-91
2021/08/11 00:04:12;;;;;;;26.60;15.57;;;;;;;;;;143733;635;46018;-93
2021/08/11 00:06:39;;;;;;;17.23;14.52;;;;;;;;;;143734;595;46021;-89
2021/08/11 00:09:06;;;;;;;15.57;14.05;;;;;;;;;;143731;884;46018;-91
2021/08/11 00:11:34;;;;;;;18.00;13.98;;;;;;;;;;143732;892;46012;-92
2021/08/11 00:14:01;;;;;;;16.65;14.02;;;;;;;;;;143734;588;46045;-92
2021/08/11 00:16:28;;;;;;;15.90;14.07;;;;;;;;;;143733;933;46023;-92
2021/08/11 00:18:55;;;;;;;18.25;14.13;;;;;;;;;;143732;595;46020;-90
2021/08/11 00:21:25;;;;;;;17.85;14.05;;;;;;;;;;143733;598;46013;-90
2021/08/11 00:23:52;;;;;;;20.15;15.30;;;;;;;;;;143731;592;46020;-90
2021/08/11 00:26:21;;;;;;;15.93;13.40;;;;;;;;;;143735;590;46014;-90
2021/08/11 00:28:49;;;;;;;18.05;15.18;;;;;;;;;;143733;572;46034;-89
2021/08/11 00:31:16;;;;;;;20.83;13.32;;;;;;;;;;143731;593;46012;-92
2021/08/11 00:33:42;;;;;;;21.58;13.60;;;;;;;;;;143733;564;46018;-92
2021/08/11 00:36:11;;;;;;;16.85;13.45;;;;;;;;;;143736;584;46012;-90
2021/08/11 00:38:38;;;;;;;17.30;12.60;;;;;;;;;;143731;582;47021;-89
2021/08/11 00:41:04;;;;;;;22.40;11.63;;;;;;;;;;143732;699;47022;-90
2021/08/11 00:43:31;;;;;;;23.25;12.93;;;;;;;;;;143732;601;47018;-91
2021/08/11 00:45:58;;;;;;;16.30;12.60;;;;;;;;;;143734;572;46013;-90
2021/08/11 00:48:27;;;;;;;17.85;13.13;;;;;;;;;;143733;564;47020;-88
2021/08/11 00:50:57;;;;;;;17.70;12.13;;;;;;;;;;143737;565;45050;-89
2021/08/11 00:53:27;;;;;;;15.35;12.88;;;;;;;;;;143737;776;46018;-91
2021/08/11 00:55:57;;;;;;;23.80;13.52;;;;;;;;;;143736;566;46012;-90
2021/08/11 00:58:25;;;;;;;18.90;12.52;;;;;;;;;;143731;590;47020;-91
2021/08/11 01:00:53;;;;;;;15.52;13.30;;;;;;;;;;143731;709;46012;-90
2021/08/11 01:03:24;;;;;;;24.35;14.68;;;;;;;;;;143733;691;47018;-90
2021/08/11 01:05:53;;;;;;;21.65;13.55;;;;;;;;;;143733;570;46022;-91
2021/08/11 01:08:22;;;;;;;15.23;12.95;;;;;;;;;;143731;601;47021;-90
2021/08/11 01:10:51;;;;;;;16.77;13.98;;;;;;;;;;143732;571;46012;-91
2021/08/11 01:13:18;;;;;;;17.52;13.30;;;;;;;;;;143733;580;46033;-90
2021/08/11 01:15:48;;;;;;;18.17;12.98;;;;;;;;;;143735;744;46012;-88
2021/08/11 01:18:18;;;;;;;17.05;13.30;;;;;;;;;;143731;599;47020;-91
2021/08/11 01:21:09;;;;;;;20.12;14.07;;;;;;;;;;143734;729;46012;-92
2021/08/11 01:23:58;;;;;;;19.62;13.32;;;;;;;;;;143733;786;46018;-91
2021/08/11 01:26:54;;;;;;;19.27;12.25;;;;;;;;;;143734;642;46012;-90
2021/08/11 01:29:59;;;;;;;21.02;13.43;;;;;;;;;;143730;586;47018;-90
2021/08/11 01:33:19;;;;;;;23.00;13.60;;;;;;;;;;143731;597;46014;-91
2021/08/11 01:36:06;;;;;;;15.75;11.73;;;;;;;;;;143732;925;46019;-91
2021/08/11 01:38:37;;;;;;;22.83;13.48;;;;;;;;;;143736;664;46012;-90
2021/08/11 01:41:06;;;;;;;18.58;12.98;;;;;;;;;;143732;569;47020;-91
2021/08/11 01:43:44;;;;;;;18.55;13.73;;;;;;;;;;143732;565;46013;-92
2021/08/11 01:46:15;;;;;;;18.70;12.75;;;;;;;;;;143733;789;47018;-89
2021/08/11 01:48:44;;;;;;;16.90;12.57;;;;;;;;;;143736;914;46020;-90
2021/08/11 01:51:11;;;;;;;23.25;13.85;;;;;;;;;;143731;566;47020;-90
2021/08/11 01:53:38;;;;;;;23.85;13.75;;;;;;;;;;143731;714;46919;-91
2021/08/11 01:56:06;;;;;;;24.35;12.20;;;;;;;;;;143734;599;46018;-91
2021/08/11 01:58:32;;;;;;;23.12;13.52;;;;;;;;;;143734;584;46013;-90
2021/08/11 02:01:02;;;;;;;18.08;12.88;;;;;;;;;;143732;737;46014;-90
2021/08/11 02:03:29;;;;;;;23.87;13.50;;;;;;;;;;143732;584;46012;-91
2021/08/11 02:05:56;;;;;;;22.40;14.10;;;;;;;;;;143734;569;46019;-90
2021/08/11 02:08:25;;;;;;;15.57;12.07;;;;;;;;;;143733;631;46020;-90
2021/08/11 02:10:55;;;;;;;16.08;12.57;;;;;;;;;;143730;629;47020;-91
2021/08/11 02:13:23;;;;;;;14.73;11.95;;;;;;;;;;143733;616;46012;-92
2021/08/11 02:15:50;;;;;;;25.23;12.30;;;;;;;;;;143732;600;46018;-90
2021/08/11 02:18:17;;;;;;;16.52;13.15;;;;;;;;;;143734;589;46022;-91
2021/08/11 02:20:46;;;;;;;27.00;14.93;;;;;;;;;;143734;597;46015;-90
2021/08/11 02:23:13;;;;;;;21.70;13.43;;;;;;;;;;143732;592;46012;-89
2021/08/11 02:26:05;;;;;;;17.58;12.77;;;;;;;;;;143733;566;46018;-88
2021/08/11 02:29:06;;;;;;;23.70;14.23;;;;;;;;;;143734;979;46014;-90
2021/08/11 02:31:52;;;;;;;24.00;12.82;;;;;;;;;;143730;811;47022;-90
2021/08/11 02:35:14;;;;;;;18.77;13.70;;;;;;;;;;143732;582;46022;-91
2021/08/11 02:38:03;;;;;;;16.52;12.77;;;;;;;;;;143736;759;46019;-90
2021/08/11 02:40:55;;;;;;;15.82;11.50;;;;;;;;;;143734;660;46012;-91
2021/08/11 02:43:34;;;;;;;17.65;11.73;;;;;;;;;;143735;560;46014;-92
2021/08/11 02:46:17;;;;;;;21.10;12.70;;;;;;;;;;143732;581;46021;-90
2021/08/11 02:49:05;;;;;;;19.77;11.55;;;;;;;;;;143735;640;46018;-89
2021/08/11 02:51:34;;;;;;;12.88;11.57;;;;;;;;;;143735;661;46020;-91
2021/08/11 02:54:23;;;;;;;21.02;12.10;;;;;;;;;;143731;980;47020;-91
2021/08/11 02:56:50;;;;;;;13.48;12.07;;;;;;;;;;143732;608;46012;-89
2021/08/11 02:59:17;;;;;;;24.98;12.30;;;;;;;;;;143734;634;46019;-89
2021/08/11 03:01:45;;;;;;;15.50;12.23;;;;;;;;;;143736;564;46020;-89
2021/08/11 03:04:12;;;;;;;15.80;11.90;;;;;;;;;;143734;569;46018;-89
2021/08/11 03:06:39;;;;;;;14.57;11.60;;;;;;;;;;143732;677;46022;-91
2021/08/11 03:09:07;;;;;;;17.15;11.82;;;;;;;;;;143734;569;46018;-89
2021/08/11 03:11:35;;;;;;;22.02;12.37;;;;;;;;;;143735;973;46020;-90
2021/08/11 03:14:06;;;;;;;22.20;12.32;;;;;;;;;;143732;579;46020;-93
2021/08/11 03:16:36;;;;;;;15.93;11.93;;;;;;;;;;143732;700;46012;-91
2021/08/11 03:19:05;;;;;;;16.15;12.20;;;;;;;;;;143732;970;46018;-91
2021/08/11 03:21:32;;;;;;;21.50;11.48;;;;;;;;;;143734;759;46013;-90
2021/08/11 03:23:59;;;;;;;18.85;12.63;;;;;;;;;;143732;569;47018;-90
2021/08/11 03:26:25;;;;;;;21.00;12.70;;;;;;;;;;143733;595;46012;-90
2021/08/11 03:28:58;;;;;;;18.30;12.35;;;;;;;;;;143733;592;47019;-91
2021/08/11 03:31:26;;;;;;;16.37;12.60;;;;;;;;;;143734;572;46020;-89
2021/08/11 03:33:52;;;;;;;14.40;12.37;;;;;;;;;;143733;564;47020;-91
2021/08/11 03:36:19;;;;;;;24.10;12.45;;;;;;;;;;143734;674;46013;-89
2021/08/11 03:38:46;;;;;;;17.70;11.85;;;;;;;;;;143734;571;46018;-90
2021/08/11 03:41:12;;;;;;;15.73;12.20;;;;;;;;;;143736;682;46012;-92
2021/08/11 03:43:39;;;;;;;17.73;12.93;;;;;;;;;;143731;844;47020;-91
2021/08/11 03:46:06;;;;;;;18.70;14.27;;;;;;;;;;143733;943;46012;-91
2021/08/11 03:48:33;;;;;;;20.77;12.27;;;;;;;;;;143734;583;46018;-93
2021/08/11 03:51:00;;;;;;;20.05;11.75;;;;;;;;;;143736;684;46020;-92
2021/08/11 03:53:27;;;;;;;30.40;12.88;;;;;;;;;;143731;886;47020;-92
2021/08/11 03:55:54;;;;;;;18.40;13.80;;;;;;;;;;143731;725;46012;-91
2021/08/11 03:58:20;;;;;;;23.55;14.32;;;;;;;;;;143733;713;46018;-91
2021/08/11 04:00:47;;;;;;;22.75;12.52;;;;;;;;;;143736;579;46052;-91
2021/08/11 04:03:14;;;;;;;16.45;12.48;;;;;;;;;;143732;563;47020;-92
2021/08/11 04:05:40;;;;;;;25.12;11.82;;;;;;;;;;143734;964;46012;-93
2021/08/11 04:08:15;;;;;;;20.60;12.75;;;;;;;;;;143735;638;47018;-91
2021/08/11 04:10:49;;;;;;;27.77;12.95;;;;;;;;;;143740;879;45031;-85
2021/08/11 04:13:35;;;;;;;20.52;12.65;;;;;;;;;;143738;569;45021;-85
2021/08/11 04:16:21;;;;;;;15.48;13.25;;;;;;;;;;143737;611;45919;-89
2021/08/11 04:19:12;;;;;;;25.02;12.05;;;;;;;;;;143739;640;45018;-90
2021/08/11 04:21:54;;;;;;;35.00;15.52;;;;;;;;;;143739;663;45023;-92
2021/08/11 04:24:40;;;;;;;25.95;13.60;;;;;;;;;;143738;605;45020;-92
2021/08/11 04:27:26;;;;;;;28.45;14.02;;;;;;;;;;143738;978;45919;-91
2021/08/11 04:30:11;;;;;;;23.77;12.52;;;;;;;;;;143740;984;45018;-84
2021/08/11 04:32:58;;;;;;;20.85;11.73;;;;;;;;;;143738;585;46010;-85
2021/08/11 04:35:51;;;;;;;28.30;12.45;;;;;;;;;;143738;983;45915;-90
2021/08/11 04:38:38;;;;;;;;;;;;;;;;;;;;;
2021/08/11 04:41:26;;;;;;;23.60;12.82;;;;;;;;;;143740;829;45018;-84
2021/08/11 04:44:10;;;;;;;29.05;12.20;;;;;;;;;;143741;671;45023;-84
2021/08/11 04:47:01;;;;;;;25.67;12.88;;;;;;;;;;143739;709;45020;-90
2021/08/11 04:49:42;;;;;;;24.37;13.05;;;;;;;;;;143738;902;45919;-90
2021/08/11 04:52:22;;;;;;;18.45;11.80;;;;;;;;;;143740;659;45019;-92
2021/08/11 04:55:04;;;;;;;26.07;13.50;;;;;;;;;;143741;762;45022;-90
2021/08/11 04:57:33;;;;;;;20.00;13.15;;;;;;;;;;143738;571;45020;-90
2021/08/11 05:00:25;;;;;;;;;;;;;;;;;;;;;
2021/08/11 05:03:21;;;;;;;27.02;14.85;;;;;;;;;;143743;569;45020;-83
2021/08/11 05:06:08;;;;;;;27.67;13.52;;;;;;;;;;143740;578;46015;-90
2021/08/11 05:08:41;;;;;;;19.40;12.95;;;;;;;;;;143737;855;46018;-89
2021/08/11 05:11:18;;;;;;;21.60;13.18;;;;;;;;;;143738;583;45040;-90
2021/08/11 05:13:46;;;;;;;20.48;12.88;;;;;;;;;;143737;566;47018;-89
2021/08/11 05:16:15;;;;;;;20.98;13.50;;;;;;;;;;143739;582;46012;-90
2021/08/11 05:18:53;;;;;;;15.77;12.88;;;;;;;;;;143734;593;47018;-90
2021/08/11 05:21:33;;;;;;;19.70;13.50;;;;;;;;;;143738;646;45919;-89
2021/08/11 05:24:14;;;;;;;20.17;12.05;;;;;;;;;;143739;587;45018;-89
2021/08/11 05:27:05;;;;;;;20.25;12.35;;;;;;;;;;143741;597;45023;-90
2021/08/11 05:30:01;;;;;;;28.87;14.52;;;;;;;;;;143738;585;46031;-88
2021/08/11 05:32:39;;;;;;;35.95;15.07;;;;;;;;;;143738;590;45920;-91
2021/08/11 05:35:26;;;;;;;22.58;12.88;;;;;;;;;;143739;581;45019;-91
2021/08/11 05:38:00;;;;;;;29.12;14.60;;;;;;;;;;143740;701;46020;-89
2021/08/11 05:40:34;;;;;;;30.23;14.45;;;;;;;;;;143737;570;46020;-91
2021/08/11 05:43:10;;;;;;;24.42;13.07;;;;;;;;;;143738;595;45023;-89
2021/08/11 05:45:42;;;;;;;36.72;14.50;;;;;;;;;;143738;614;45018;-90
2021/08/11 05:48:11;;;;;;;23.17;12.60;;;;;;;;;;143739;625;46010;-91
2021/08/11 05:50:40;;;;;;;18.42;12.35;;;;;;;;;;143738;593;45021;-91
2021/08/11 05:53:07;;;;;;;21.30;12.60;;;;;;;;;;143737;564;46012;-92
2021/08/11 05:55:35;;;;;;;19.27;12.95;;;;;;;;;;143738;592;46018;-91
2021/08/11 05:58:02;;;;;;;16.15;12.68;;;;;;;;;;143737;643;46012;-90
2021/08/11 06:00:28;;;;;;;23.08;14.05;;;;;;;;;;143733;593;47020;-91
2021/08/11 06:02:57;;;;;;;19.95;13.23;;;;;;;;;;143732;585;46014;-90
2021/08/11 06:05:27;;;;;;;19.70;12.07;;;;;;;;;;143735;638;47019;-90
2021/08/11 06:07:53;;;;;;;14.55;12.73;;;;;;;;;;143735;641;47033;-91
2021/08/11 06:10:20;;;;;;;24.70;12.37;;;;;;;;;;143735;572;46020;-90
2021/08/11 06:12:47;;;;;;;25.33;12.40;;;;;;;;;;143734;564;46014;-89
2021/08/11 06:15:14;;;;;;;19.37;13.15;;;;;;;;;;143736;672;46018;-92
2021/08/11 06:17:45;;;;;;;14.70;12.75;;;;;;;;;;143737;657;46012;-90
2021/08/11 06:20:13;;;;;;;17.95;12.48;;;;;;;;;;143733;590;46021;-91
2021/08/11 06:22:40;;;;;;;23.67;12.98;;;;;;;;;;143733;602;46012;-91
2021/08/11 06:25:08;;;;;;;20.92;13.62;;;;;;;;;;143736;603;46018;-90
2021/08/11 06:27:37;;;;;;;16.58;12.25;;;;;;;;;;143737;586;47023;-90
2021/08/11 06:30:09;;;;;;;21.12;12.80;;;;;;;;;;143734;655;47020;-91
2021/08/11 06:32:37;;;;;;;25.52;14.48;;;;;;;;;;143738;674;45022;-91
2021/08/11 06:35:05;;;;;;;19.15;15.00;;;;;;;;;;143735;576;46019;-90
2021/08/11 06:37:32;;;;;;;26.30;15.80;;;;;;;;;;143737;578;46020;-90
2021/08/11 06:39:58;;;;;;;21.87;14.93;;;;;;;;;;143736;587;46020;-91
2021/08/11 06:42:25;;;;;;;26.92;15.95;;;;;;;;;;143734;607;46023;-90
2021/08/11 06:44:52;;;;;;;23.70;16.60;;;;;;;;;;143734;637;46018;-91
2021/08/11 06:47:27;;;;;;;20.98;16.73;;;;;;;;;;143736;654;46012;-90
2021/08/11 06:50:00;;;;;;;22.92;16.70;;;;;;;;;;143735;572;46015;-91
2021/08/11 06:52:28;;;;;;;18.10;15.63;;;;;;;;;;143735;620;46022;-89
2021/08/11 06:55:05;;;;;;;23.25;16.98;;;;;;;;;;143735;578;47018;-88
2021/08/11 06:57:47;;;;;;;19.20;16.70;;;;;;;;;;143737;569;46020;-91
2021/08/11 07:00:22;;;;;;;17.87;15.68;;;;;;;;;;143735;571;46020;-88
2021/08/11 07:02:49;;;;;;;28.05;17.08;;;;;;;;;;143735;706;46012;-93
2021/08/11 07:05:30;;;;;;;19.70;17.48;;;;;;;;;;143736;595;46019;-90
2021/08/11 07:07:57;;;;;;;18.27;16.00;;;;;;;;;;143736;712;46022;-90
2021/08/11 07:10:25;;;;;;;18.45;16.05;;;;;;;;;;143733;601;47020;-89
2021/08/11 07:12:51;;;;;;;18.08;16.17;;;;;;;;;;143734;659;46022;-90
2021/08/11 07:15:18;;;;;;;22.73;15.55;;;;;;;;;;143737;603;46018;-90
2021/08/11 07:17:59;;;;;;;18.52;14.70;;;;;;;;;;143735;578;46012;-91
2021/08/11 07:20:48;;;;;;;;;;;;;;;;;;;;;
2021/08/11 07:23:16;;;;;;;22.92;16.02;;;;;;;;;;143734;650;46022;-94
2021/08/11 07:25:44;;;;;;;17.35;13.90;;;;;;;;;;143733;613;47018;-93
2021/08/11 07:28:14;;;;;;;17.50;13.38;;;;;;;;;;143739;600;46023;-89
2021/08/11 07:30:43;;;;;;;15.55;13.38;;;;;;;;;;143733;573;47020;-92
2021/08/11 07:33:11;;;;;;;19.45;12.88;;;;;;;;;;143733;596;46013;-91
2021/08/11 07:35:39;;;;;;;15.55;13.90;;;;;;;;;;143734;564;46019;-92
2021/08/11 07:38:07;;;;;;;23.80;14.23;;;;;;;;;;143734;579;46020;-91
2021/08/11 07:40:35;;;;;;;19.75;13.95;;;;;;;;;;143734;564;47020;-91
2021/08/11 07:43:04;;;;;;;17.52;13.73;;;;;;;;;;143736;648;46012;-90
2021/08/11 07:45:31;;;;;;;16.15;13.05;;;;;;;;;;143736;614;46018;-90
2021/08/11 07:48:06;;;;;;;15.32;12.37;;;;;;;;;;143735;610;46022;-90
2021/08/11 07:50:47;;;;;;;18.80;13.07;;;;;;;;;;143731;569;47021;-91
2021/08/11 07:53:19;;;;;;;16.65;13.02;;;;;;;;;;143735;579;46012;-91
2021/08/11 07:55:51;;;;;;;14.93;13.43;;;;;;;;;;143736;683;46019;-90
2021/08/11 07:58:20;;;;;;;17.77;14.93;;;;;;;;;;143736;594;47020;-90
2021/08/11 08:00:47;;;;;;;20.15;14.38;;;;;;;;;;143733;577;47020;-91
2021/08/11 08:03:17;;;;;;;15.88;14.25;;;;;;;;;;143734;564;46013;-91
2021/08/11 08:05:44;;;;;;;18.65;14.10;;;;;;;;;;143737;588;46018;-91
2021/08/11 08:08:11;;;;;;;17.73;14.57;;;;;;;;;;143736;638;46020;-90
2021/08/11 08:10:38;;;;;;;17.35;14.32;;;;;;;;;;143734;573;46020;-90
2021/08/11 08:13:04;;;;;;;21.90;15.85;;;;;;;;;;143732;566;46012;-91
2021/08/11 08:15:31;;;;;;;17.95;14.32;;;;;;;;;;143736;569;46018;-88
2021/08/11 08:17:59;;;;;;;15.63;14.10;;;;;;;;;;143736;683;46012;-90
2021/08/11 08:20:26;;;;;;;18.55;15.40;;;;;;;;;;143732;570;47021;-90
2021/08/11 08:22:53;;;;;;;18.40;14.38;;;;;;;;;;143733;643;46012;-91
2021/08/11 08:25:21;;;;;;;18.83;15.85;;;;;;;;;;143734;639;46019;-87
2021/08/11 08:27:52;;;;;;;19.40;15.18;;;;;;;;;;143737;594;46012;-92
2021/08/11 08:30:19;;;;;;;18.27;15.52;;;;;;;;;;143734;576;46034;-91
2021/08/11 08:32:49;;;;;;;20.30;16.10;;;;;;;;;;143735;572;46013;-90
2021/08/11 08:35:18;;;;;;;17.05;15.45;;;;;;;;;;143737;586;47016;-90
2021/08/11 08:37:45;;;;;;;16.65;15.05;;;;;;;;;;143736;566;46012;-90
2021/08/11 08:40:16;;;;;;;27.33;17.27;;;;;;;;;;143734;643;46019;-91
2021/08/11 08:42:43;;;;;;;19.52;15.65;;;;;;;;;;143734;572;46921;-89
2021/08/11 08:45:12;;;;;;;20.37;15.45;;;;;;;;;;143735;654;46018;-90
2021/08/11 08:47:40;;;;;;;21.85;16.17;;;;;;;;;;143737;571;46013;-90
2021/08/11 08:50:09;;;;;;;26.45;16.45;;;;;;;;;;143734;572;47021;-89
2021/08/11 08:52:38;;;;;;;18.67;16.85;;;;;;;;;;143734;593;47012;-90
2021/08/11 08:55:06;;;;;;;25.23;17.62;;;;;;;;;;143736;591;46018;-92
2021/08/11 08:57:35;;;;;;;18.87;15.98;;;;;;;;;;143736;737;46012;-92
2021/08/11 09:00:05;;;;;;;19.48;17.48;;;;;;;;;;143732;626;46020;-89
2021/08/11 09:02:32;;;;;;;17.62;15.98;;;;;;;;;;143732;599;48022;-90
2021/08/11 09:05:01;;;;;;;19.23;17.20;;;;;;;;;;143732;590;47018;-90
2021/08/11 09:07:28;;;;;;;22.50;18.05;;;;;;;;;;143733;603;46012;-90
2021/08/11 09:09:55;;;;;;;19.15;16.75;;;;;;;;;;143732;652;46048;-91
2021/08/11 09:12:24;;;;;;;22.37;17.40;;;;;;;;;;143730;663;46012;-90
2021/08/11 09:14:52;;;;;;;23.35;17.33;;;;;;;;;;143732;588;46018;-90
2021/08/11 09:17:48;;;;;;;19.42;17.52;;;;;;;;;;143733;579;46012;-89
2021/08/11 09:20:22;;;;;;;24.40;18.73;;;;;;;;;;143732;592;46023;-90
2021/08/11 09:22:54;;;;;;;19.58;16.30;;;;;;;;;;143732;570;46012;-90
2021/08/11 09:25:24;;;;;;;18.73;16.77;;;;;;;;;;143732;608;46018;-90
2021/08/11 09:27:52;;;;;;;23.98;18.17;;;;;;;;;;143735;569;46020;-90
2021/08/11 09:30:25;;;;;;;21.60;14.15;;;;;;;;;;143732;575;47018;-89
2021/08/11 09:33:02;;;;;;;17.83;15.30;;;;;;;;;;143734;565;46023;-91
2021/08/11 09:35:31;;;;;;;16.65;14.73;;;;;;;;;;143733;577;46018;-92
2021/08/11 09:38:15;;;;;;;17.35;12.77;;;;;;;;;;143733;717;46022;-91
2021/08/11 09:40:43;;;;;;;14.65;13.25;;;;;;;;;;143732;740;46020;-90
2021/08/11 09:43:16;;;;;;;14.68;13.30;;;;;;;;;;143733;594;46012;-90
2021/08/11 09:45:50;;;;;;;19.37;12.75;;;;;;;;;;143733;587;46018;-89
2021/08/11 09:48:22;;;;;;;12.55;11.27;;;;;;;;;;143734;575;46013;-89
2021/08/11 09:50:53;;;;;;;11.65;8.57;;;;;;;;;;143731;660;47018;-91
2021/08/11 09:53:37;;;;;;;9.23;8.05;;;;;;;;;;143732;597;46012;-90
2021/08/11 09:56:11;;;;;;;9.68;8.55;;;;;;;;;;143736;620;46019;-89
2021/08/11 09:59:02;;;;;;;9.25;8.00;;;;;;;;;;143737;585;45022;-90
2021/08/11 10:01:35;;;;;;;10.00;7.32;;;;;;;;;;143736;581;45916;-89
2021/08/11 10:04:10;;;;;;;14.73;8.52;;;;;;;;;;143736;569;45921;-91
2021/08/11 10:06:39;;;;;;;9.77;8.00;;;;;;;;;;143734;601;46018;-90
2021/08/11 10:09:32;;;;;;;12.20;9.00;;;;;;;;;;143733;656;47020;-90
2021/08/11 10:12:00;;;;;;;16.60;9.40;;;;;;;;;;143733;634;47018;-92
2021/08/11 10:14:35;;;;;;;13.48;8.07;;;;;;;;;;143731;569;46012;-90
2021/08/11 10:17:03;;;;;;;9.85;8.85;;;;;;;;;;143733;569;46018;-92
2021/08/11 10:19:32;;;;;;;11.48;7.95;;;;;;;;;;143736;572;46022;-90
2021/08/11 10:22:21;;;;;;;14.57;8.75;;;;;;;;;;143733;566;46020;-90
2021/08/11 10:24:51;;;;;;;10.98;7.57;;;;;;;;;;143732;615;46013;-91
2021/08/11 10:27:19;;;;;;;16.23;7.47;;;;;;;;;;143732;720;46018;-91
2021/08/11 10:29:50;;;;;;;9.02;8.10;;;;;;;;;;143737;593;47022;-89
2021/08/11 10:32:17;;;;;;;16.17;7.97;;;;;;;;;;143730;581;46019;-89
2021/08/11 10:34:48;;;;;;;9.93;7.32;;;;;;;;;;143731;595;46920;-90
2021/08/11 10:37:17;;;;;;;10.55;8.98;;;;;;;;;;143733;594;47018;-91
2021/08/11 10:39:44;;;;;;;12.57;9.00;;;;;;;;;;143736;584;46012;-91
2021/08/11 10:42:12;;;;;;;12.27;9.50;;;;;;;;;;143731;687;47021;-91
2021/08/11 10:44:39;;;;;;;11.15;9.98;;;;;;;;;;143734;670;45920;-91
2021/08/11 10:47:09;;;;;;;14.95;10.45;;;;;;;;;;143735;585;46019;-93
2021/08/11 10:49:56;;;;;;;15.93;10.40;;;;;;;;;;143735;589;46012;-92
2021/08/11 10:52:24;;;;;;;14.48;11.50;;;;;;;;;;143733;565;46020;-89
2021/08/11 10:54:55;;;;;;;15.20;12.70;;;;;;;;;;143733;577;46012;-90
2021/08/11 10:57:57;;;;;;;19.25;15.93;;;;;;;;;;143733;609;46018;-90
2021/08/11 11:00:44;;;;;;;22.83;19.05;;;;;;;;;;143737;592;46012;-89
2021/08/11 11:03:52;;;;;;;22.37;19.20;;;;;;;;;;143732;573;47023;-91
2021/08/11 11:06:19;;;;;;;21.85;18.77;;;;;;;;;;143730;564;47022;-92
2021/08/11 11:08:46;;;;;;;21.45;19.37;;;;;;;;;;143734;564;46018;-92
2021/08/11 11:11:37;;;;;;;20.15;17.60;;;;;;;;;;143734;577;46012;-91
2021/08/11 11:14:05;;;;;;;23.45;17.98;;;;;;;;;;143732;578;46020;-91
2021/08/11 11:17:04;;;;;;;19.40;17.58;;;;;;;;;;143735;571;46012;-91
2021/08/11 11:19:31;;;;;;;21.67;18.48;;;;;;;;;;143734;565;46018;-90
2021/08/11 11:22:18;;;;;;;19.67;14.10;;;;;;;;;;143734;587;46012;-89
2021/08/11 11:24:51;;;;;;;24.73;22.23;;;;;;;;;;143732;593;46913;-90
2021/08/11 11:27:54;;;;;;;26.23;19.98;;;;;;;;;;143733;616;46022;-91
2021/08/11 11:30:47;;;;;;;23.33;20.90;;;;;;;;;;143732;617;47018;-91
2021/08/11 11:33:43;;;;;;;21.67;19.48;;;;;;;;;;143735;582;46023;-90
2021/08/11 11:36:25;;;;;;;23.02;19.55;;;;;;;;;;143734;580;46914;-92
2021/08/11 11:39:07;;;;;;;;;;;;;;;;;;143740;979;45023;-91
2021/08/11 11:41:35;;;;;;;27.13;24.57;;;;;;;;;;143744;580;46018;-91
2021/08/11 11:44:38;;;;;;;25.55;23.05;;;;;;;;;;143735;595;46022;-93
2021/08/11 11:47:05;;;;;;;24.87;20.20;;;;;;;;;;143733;564;46018;-90
2021/08/11 11:49:32;;;;;;;21.62;18.98;;;;;;;;;;143735;661;45920;-92
2021/08/11 11:52:01;;;;;;;20.95;18.92;;;;;;;;;;143732;598;46018;-89
2021/08/11 11:54:28;;;;;;;21.87;17.70;;;;;;;;;;143734;636;46010;-91
2021/08/11 11:56:55;;;;;;;26.50;23.77;;;;;;;;;;143732;570;46913;-89
2021/08/11 11:59:24;;;;;;;26.80;23.98;;;;;;;;;;143729;704;46010;-93
2021/08/11 12:01:52;;;;;;;32.22;22.62;;;;;;;;;;143733;565;47019;-91
2021/08/11 12:04:25;;;;;;;16.45;14.70;;;;;;;;;;143733;667;46010;-91
2021/08/11 12:06:52;;;;;;;12.68;8.85;;;;;;;;;;143734;696;46012;-91
2021/08/11 12:09:20;;;;;;;10.43;8.27;;;;;;;;;;143732;614;46010;-92
2021/08/11 12:11:51;;;;;;;11.98;7.70;;;;;;;;;;143733;569;47018;-90
2021/08/11 12:14:24;;;;;;;10.20;8.05;;;;;;;;;;143737;626;46022;-90
2021/08/11 12:16:54;;;;;;;12.48;11.07;;;;;;;;;;143731;565;46020;-92
2021/08/11 12:19:21;;;;;;;15.68;9.05;;;;;;;;;;143733;590;46918;-92
2021/08/11 12:21:48;;;;;;;15.18;8.80;;;;;;;;;;143735;626;46018;-91
2021/08/11 12:24:16;;;;;;;13.80;9.95;;;;;;;;;;143736;571;45023;-94
2021/08/11 12:26:44;;;;;;;18.77;15.07;;;;;;;;;;143734;613;46012;-92
2021/08/11 12:29:20;;;;;;;25.83;22.23;;;;;;;;;;143733;596;46012;-90
2021/08/11 12:31:49;;;;;;;26.23;23.55;;;;;;;;;;143733;566;46018;-90
2021/08/11 12:34:18;;;;;;;23.48;21.15;;;;;;;;;;143738;629;45022;-93
2021/08/11 12:36:45;;;;;;;24.27;21.55;;;;;;;;;;143736;729;45913;-92
2021/08/11 12:39:17;;;;;;;26.48;23.65;;;;;;;;;;143733;596;46023;-93
2021/08/11 12:42:03;;;;;;;26.95;21.42;;;;;;;;;;143733;573;46018;-93
2021/08/11 12:44:34;;;;;;;29.90;22.05;;;;;;;;;;143739;588;46022;-93
2021/08/11 12:47:08;;;;;;;28.25;21.80;;;;;;;;;;143734;573;46019;-90
2021/08/11 12:49:59;;;;;;;21.50;19.27;;;;;;;;;;143734;602;45919;-91
2021/08/11 12:52:26;;;;;;;13.57;12.15;;;;;;;;;;143733;575;46012;-90
2021/08/11 12:55:09;;;;;;;18.92;13.10;;;;;;;;;;143735;574;46010;-88
2021/08/11 12:58:02;;;;;;;14.35;11.07;;;;;;;;;;143734;698;46020;-90
2021/08/11 13:00:45;;;;;;;17.15;9.93;;;;;;;;;;143732;604;46010;-89
2021/08/11 13:03:12;;;;;;;12.20;9.45;;;;;;;;;;143732;569;47018;-90
2021/08/11 13:05:54;;;;;;;10.15;9.15;;;;;;;;;;143735;572;46022;-91
2021/08/11 13:08:37;;;;;;;17.30;9.98;;;;;;;;;;143734;566;46018;-90
2021/08/11 13:11:04;;;;;;;12.18;7.68;;;;;;;;;;143732;579;46022;-89
2021/08/11 13:13:35;;;;;;;10.73;8.02;;;;;;;;;;143733;654;46018;-90
2021/08/11 13:16:15;;;;;;;9.63;7.70;;;;;;;;;;143736;585;46010;-90
2021/08/11 13:18:43;;;;;;;11.25;6.07;;;;;;;;;;143732;583;47020;-90
2021/08/11 13:21:10;;;;;;;12.70;5.82;;;;;;;;;;143730;570;46010;-94
2021/08/11 13:23:40;;;;;;;9.40;6.18;;;;;;;;;;143733;740;46019;-92
2021/08/11 13:26:07;;;;;;;9.73;6.25;;;;;;;;;;143734;571;46010;-92
2021/08/11 13:28:38;;;;;;;11.15;7.03;;;;;;;;;;143732;713;47020;-90
2021/08/11 13:31:06;;;;;;;9.48;7.20;;;;;;;;;;143733;565;46010;-92
2021/08/11 13:33:33;;;;;;;9.35;6.85;;;;;;;;;;143733;730;46018;-89
2021/08/11 13:36:00;;;;;;;7.40;6.40;;;;;;;;;;143735;584;46010;-90
2021/08/11 13:38:26;;;;;;;9.00;6.05;;;;;;;;;;143730;567;47020;-91
2021/08/11 13:40:53;;;;;;;8.02;6.20;;;;;;;;;;143732;605;46918;-92
2021/08/11 13:43:20;;;;;;;8.80;5.60;;;;;;;;;;143735;722;46018;-90
2021/08/11 13:45:47;;;;;;;9.23;5.43;;;;;;;;;;143736;573;46023;-90
2021/08/11 13:48:14;;;;;;;6.70;5.18;;;;;;;;;;143730;634;47020;-92
2021/08/11 13:50:41;;;;;;;11.68;5.50;;;;;;;;;;143732;604;45919;-88
2021/08/11 13:53:08;;;;;;;12.80;5.93;;;;;;;;;;143733;646;47018;-87
2021/08/11 13:55:35;;;;;;;7.40;4.45;;;;;;;;;;143735;581;46048;-89
2021/08/11 13:58:02;;;;;;;13.32;4.93;;;;;;;;;;143732;663;47020;-90
2021/08/11 14:00:29;;;;;;;7.50;4.32;;;;;;;;;;143732;657;46919;-91
2021/08/11 14:02:56;;;;;;;8.20;4.50;;;;;;;;;;143734;605;46018;-90
2021/08/11 14:05:23;;;;;;;6.85;3.97;;;;;;;;;;143735;628;46022;-89
2021/08/11 14:07:49;;;;;;;8.80;3.90;;;;;;;;;;143734;608;46019;-89
2021/08/11 14:10:16;;;;;;;11.18;4.37;;;;;;;;;;143731;602;47022;-92
2021/08/11 14:12:43;;;;;;;11.68;4.22;;;;;;;;;;143737;615;46018;-92
2021/08/11 14:15:11;;;;;;;10.63;5.03;;;;;;;;;;143734;695;46010;-89
2021/08/11 14:17:38;;;;;;;8.30;4.25;;;;;;;;;;143731;581;47021;-89
2021/08/11 14:20:09;;;;;;;12.60;3.90;;;;;;;;;;143731;583;46010;-89
2021/08/11 14:22:36;;;;;;;7.50;3.95;;;;;;;;;;143732;600;46019;-89
2021/08/11 14:25:03;;;;;;;7.75;3.80;;;;;;;;;;143735;574;46010;-89
2021/08/11 14:27:29;;;;;;;6.62;2.97;;;;;;;;;;143733;573;47020;-90
2021/08/11 14:29:56;;;;;;;6.45;3.40;;;;;;;;;;143731;698;46010;-91
2021/08/11 14:32:24;;;;;;;7.32;4.05;;;;;;;;;;143733;691;46018;-91
2021/08/11 14:34:52;;;;;;;5.68;3.40;;;;;;;;;;143738;570;46010;-90
2021/08/11 14:37:22;;;;;;;5.45;3.47;;;;;;;;;;143737;583;45020;-89
2021/08/11 14:39:48;;;;;;;4.80;3.28;;;;;;;;;;143733;711;46010;-91
2021/08/11 14:42:15;;;;;;;4.68;3.20;;;;;;;;;;143732;592;47018;-90
2021/08/11 14:44:43;;;;;;;10.02;3.37;;;;;;;;;;143734;575;46011;-90
2021/08/11 14:47:09;;;;;;;11.40;3.65;;;;;;;;;;143732;669;47018;-91
2021/08/11 14:49:36;;;;;;;3.70;2.92;;;;;;;;;;143733;608;46022;-92
2021/08/11 14:52:03;;;;;;;6.10;3.95;;;;;;;;;;143731;587;47019;-91
2021/08/11 14:54:30;;;;;;;6.57;3.80;;;;;;;;;;143733;581;46010;-90
2021/08/11 14:56:57;;;;;;;6.03;3.83;;;;;;;;;;143733;593;46020;-90